Data for 07/29/2013

Time Sea-Level Adjusted Pressure Absolute Pressure Temperature Relative Humidity Dew Point Precipitation   
(mb) (inHg) (mb) (inHg) (C) (F) (%) (C) (F) (mm) (in)
00:05 1018 30.06 847 25.01 13.6 56.5 69 8.1 46.5 0 0
00:10 1018 30.06 847 25.01 14.1 57.3 65 7.6 45.6 0 0
00:15 1018 30.06 847 25.01 14.1 57.4 68 8.3 47 0 0
00:20 1018 30.06 847 25.01 13.9 57 69 8.4 47.2 0 0
00:25 1018 30.06 847 25.01 13.6 56.5 69 8.1 46.6 0 0
00:30 1018 30.06 847 25.01 13.6 56.5 69 8.2 46.7 0 0
00:35 1018 30.06 847 25.01 13.7 56.7 70 8.3 47 0 0
00:40 1018 30.06 848 25.04 13.9 56.9 68 8.1 46.5 0 0
00:45 1018 30.06 848 25.04 14.2 57.6 66 8.1 46.5 0 0
00:50 1018 30.06 848 25.04 14.2 57.6 65 7.8 46 0 0
00:55 1018 30.06 848 25.04 14.2 57.6 66 8 46.5 0 0
01:00 1018 30.06 848 25.04 14.2 57.5 65 7.7 45.8 0 0
01:05 1018 30.06 848 25.04 14.3 57.7 65 7.8 46.1 0 0
01:10 1018 30.06 848 25.04 13.7 56.6 71 8.5 47.2 0 0
01:15 1018 30.06 848 25.04 12.9 55.2 73 8.3 46.9 0 0
01:20 1018 30.06 848 25.04 12.3 54.2 76 8.3 47 0 0
01:25 1018 30.06 848 25.04 12.3 54.2 72 7.4 45.3 0 0
01:30 1018 30.06 848 25.04 12.8 55.1 76 8.6 47.6 0 0
01:35 1018 30.06 848 25.04 12.6 54.6 77 8.7 47.6 0 0
01:40 1018 30.06 848 25.04 12.5 54.5 77 8.5 47.4 0 0
01:45 1019 30.09 848 25.04 12.5 54.5 77 8.7 47.6 0 0
01:50 1019 30.09 848 25.04 12.4 54.2 77 8.5 47.3 0 0
01:55 1019 30.09 848 25.04 12.1 53.8 80 8.9 48 0 0
02:00 1018 30.06 848 25.04 11.7 53.1 81 8.6 47.5 0 0
02:05 1018 30.06 848 25.04 11.6 52.9 82 8.6 47.5 0 0
02:10 1019 30.09 848 25.04 11.4 52.4 83 8.6 47.5 0 0
02:15 1019 30.09 848 25.04 11.1 51.9 86 8.8 47.9 0 0
02:20 1019 30.09 848 25.04 10.7 51.2 86 8.5 47.3 0 0
02:25 1019 30.09 848 25.04 10.8 51.5 83 8.1 46.7 0 0
02:30 1019 30.09 848 25.04 11.2 52.2 81 8 46.5 0 0
02:35 1019 30.09 848 25.04 11.5 52.6 80 8.1 46.6 0 0
02:40 1019 30.09 848 25.04 11.1 52.1 83 8.4 47.1 0 0
02:45 1019 30.09 848 25.04 10.7 51.2 86 8.5 47.3 0 0
02:50 1019 30.09 848 25.04 10.4 50.7 87 8.3 46.9 0 0
02:55 1019 30.09 848 25.04 10 50 87 7.9 46.3 0 0
03:00 1019 30.09 848 25.04 9.9 49.7 89 8.1 46.7 0 0
03:05 1019 30.09 848 25.04 9.6 49.2 88 7.7 45.9 0 0
03:10 1019 30.09 848 25.04 9.3 48.7 90 7.7 45.9 0 0
03:15 1019 30.09 848 25.04 9.3 48.7 89 7.6 45.6 0 0
03:20 1019 30.09 848 25.04 9 48.2 91 7.6 45.8 0 0
03:25 1019 30.09 848 25.04 9.1 48.3 89 7.4 45.3 0 0
03:30 1019 30.09 848 25.04 8.6 47.6 90 7.1 44.8 0 0
03:35 1019 30.09 848 25.04 8.7 47.6 91 7.2 45 0 0
03:40 1019 30.09 848 25.04 8.8 47.9 90 7.2 45 0 0
03:45 1019 30.09 848 25.04 8.6 47.5 89 6.9 44.4 0 0
03:50 1019 30.09 848 25.04 8.6 47.5 89 7 44.5 0 0
03:55 1019 30.09 848 25.04 8.5 47.3 90 7 44.7 0 0
04:00 1019 30.09 848 25.04 8.4 47.1 90 6.8 44.2 0 0
04:05 1019 30.09 848 25.04 8.2 46.8 90 6.6 44 0 0
04:10 1019 30.09 848 25.04 8.2 46.7 91 6.8 44.3 0 0
04:15 1019 30.09 848 25.04 8.6 47.4 90 7 44.6 0 0
04:20 1019 30.09 848 25.04 8.7 47.6 90 7.1 44.7 0 0
04:25 1019 30.09 848 25.04 8.6 47.6 90 7.1 44.8 0 0
04:30 1019 30.09 848 25.04 8.5 47.2 91 7.1 44.9 0 0
04:35 1019 30.09 848 25.04 8.7 47.6 90 7.1 44.8 0 0
04:40 1019 30.09 848 25.04 8.4 47.2 89 6.8 44.2 0 0
04:45 1019 30.09 848 25.04 8.5 47.3 88 6.7 44.1 0 0
04:50 1019 30.09 849 25.07 8.4 47.2 88 6.6 43.9 0 0
04:55 1020 30.12 849 25.07 8.2 46.8 89 6.6 43.9 0 0
05:00 1020 30.12 849 25.07 8.2 46.7 90 6.6 43.8 0 0
05:05 1020 30.12 849 25.07 8.5 47.3 88 6.6 43.9 0 0
05:10 1020 30.12 849 25.07 8.6 47.5 89 6.9 44.4 0 0
05:15 1020 30.12 849 25.07 8.7 47.6 87 6.6 44 0 0
05:20 1020 30.12 849 25.07 8.5 47.4 88 6.6 43.9 0 0
05:25 1020 30.12 849 25.07 8.1 46.7 90 6.6 43.8 0 0
05:30 1020 30.12 849 25.07 8.1 46.5 90 6.6 43.9 0 0
05:35 1020 30.12 849 25.07 8.2 46.8 90 6.8 44.2 0 0
05:40 1020 30.12 849 25.07 8.7 47.6 87 6.7 44.1 0 0
05:45 1020 30.12 849 25.07 9 48.2 87 7 44.6 0 0
05:50 1020 30.12 850 25.1 8.9 48 87 6.9 44.5 0 0
05:55 1020 30.12 850 25.1 8.9 47.9 87 6.9 44.4 0 0
06:00 1021 30.15 850 25.1 9.1 48.3 85 6.7 44.1 0 0
06:05 1021 30.15 850 25.1 9.4 49 84 6.8 44.3 0 0
06:10 1021 30.15 850 25.1 9.1 48.4 87 7 44.6 0 0
06:15 1021 30.15 850 25.1 8.7 47.7 88 6.8 44.3 0 0
06:20 1021 30.15 850 25.1 8.6 47.4 89 6.9 44.5 0 0
06:25 1021 30.15 850 25.1 8.4 47.2 89 6.8 44.2 0 0
06:30 1021 30.15 850 25.1 8.1 46.5 91 6.7 44 0 0
06:35 1021 30.15 850 25.1 8.4 47.2 89 6.7 44 0 0
06:40 1021 30.15 850 25.1 8.8 47.8 88 6.8 44.3 0 0
06:45 1021 30.15 850 25.1 9.1 48.4 85 6.7 44.1 0 0
06:50 1021 30.15 850 25.1 9 48.2 86 6.8 44.2 0 0
06:55 1021 30.15 850 25.1 8.9 47.9 87 6.9 44.4 0 0
07:00 1021 30.15 850 25.1 8.8 47.8 87 6.8 44.3 0 0
07:05 1021 30.15 850 25.1 8.8 47.8 89 7.1 44.8 0 0
07:10 1021 30.15 850 25.1 9 48.2 89 7.3 45.1 0 0
07:15 1021 30.15 850 25.1 9.9 49.7 87 7.8 46 0 0
07:20 1021 30.15 851 25.13 10.5 51 86 8.3 47 0 0
07:25 1021 30.15 851 25.13 10.8 51.5 84 8.3 46.9 0 0
07:30 1021 30.15 851 25.13 11.1 51.9 82 8.1 46.6 0 0
07:35 1021 30.15 851 25.13 11.2 52.2 83 8.4 47.1 0 0
07:40 1022 30.18 851 25.13 11.4 52.5 82 8.5 47.3 0 0
07:45 1022 30.18 851 25.13 11.6 52.8 82 8.7 47.6 0 0
07:50 1022 30.18 851 25.13 11.8 53.2 84 9.2 48.5 0 0
07:55 1022 30.18 851 25.13 12 53.6 83 9.2 48.6 0 0
08:00 1022 30.18 851 25.13 12.2 54 83 9.5 49 0 0
08:05 1022 30.18 851 25.13 12.4 54.4 82 9.5 49.1 0 0
08:10 1022 30.18 851 25.13 12.5 54.4 81 9.3 48.7 0 0
08:15 1022 30.18 851 25.13 12.5 54.5 79 9 48.2 0 0
08:20 1022 30.18 851 25.13 12.7 54.8 79 9.1 48.4 0 0
08:25 1022 30.18 851 25.13 12.9 55.1 79 9.3 48.8 0 0
08:30 1022 30.18 851 25.13 13 55.4 76 8.9 48 0 0
08:35 1022 30.18 851 25.13 13.1 55.5 79 9.5 49.1 0 0
08:40 1022 30.18 851 25.13 13.4 56.1 76 9.3 48.7 0 0
08:45 1022 30.18 851 25.13 13.5 56.2 76 9.3 48.7 0 0
08:50 1022 30.18 851 25.13 13.7 56.6 75 9.2 48.6 0 0
08:55 1022 30.18 851 25.13 13.7 56.7 76 9.7 49.4 0 0
09:00 1022 30.18 851 25.13 13.9 57 72 9 48.2 0 0
09:05 1022 30.18 851 25.13 14.1 57.4 73 9.3 48.7 0 0
09:10 1022 30.18 851 25.13 14.2 57.5 74 9.6 49.3 0 0
09:15 1022 30.18 851 25.13 14.4 58 70 9.1 48.4 0 0
09:20 1022 30.18 851 25.13 14.7 58.5 70 9.3 48.8 0 0
09:25 1022 30.18 851 25.13 14.9 58.8 68 9.2 48.6 0 0
09:30 1022 30.18 851 25.13 14.9 58.8 67 8.9 48 0 0
09:35 1022 30.18 851 25.13 15 59 66 8.8 47.8 0 0
09:40 1022 30.18 851 25.13 14.9 58.8 69 9.2 48.6 0 0
09:45 1022 30.18 851 25.13 15.4 59.8 64 8.8 47.9 0 0
09:50 1022 30.18 851 25.13 15.8 60.4 65 9.2 48.6 0 0
09:55 1022 30.18 851 25.13 15.9 60.7 67 9.8 49.6 0 0
10:00 1022 30.18 851 25.13 15.9 60.7 64 9.2 48.5 0 0
10:05 1022 30.18 851 25.13 16.4 61.5 60 8.8 47.8 0 0
10:10 1022 30.18 851 25.13 16.7 62.1 63 9.6 49.4 0 0
10:15 1022 30.18 851 25.13 17 62.6 61 9.4 49 0 0
10:20 1022 30.18 851 25.13 16.9 62.4 63 9.8 49.6 0 0
10:25 1022 30.18 851 25.13 17.2 62.9 59 9.3 48.7 0 0
10:30 1022 30.18 851 25.13 17.5 63.6 60 9.8 49.6 0 0
10:35 1022 30.18 851 25.13 17 62.6 57 8.5 47.4 0 0
10:40 1022 30.18 851 25.13 16.7 62.1 62 9.6 49.2 0 0
10:45 1022 30.18 851 25.13 16.6 61.9 62 9.3 48.7 0 0
10:50 1021 30.15 851 25.13 16.5 61.7 64 9.7 49.4 0 0
10:55 1021 30.15 851 25.13 16.6 61.8 61 9 48.2 0 0
11:00 1021 30.15 851 25.13 16.8 62.3 59 9 48.1 0 0
11:05 1021 30.15 851 25.13 16.9 62.5 59 8.9 47.9 0 0
11:10 1021 30.15 850 25.1 17.5 63.5 59 9.5 49.1 0 0
11:15 1021 30.15 850 25.1 17.9 64.1 57 9.5 49 0 0
11:20 1021 30.15 850 25.1 18.1 64.6 53 8.4 47.2 0 0
11:25 1021 30.15 850 25.1 17.8 64.1 56 9 48.2 0 0
11:30 1021 30.15 850 25.1 18.2 64.7 55 9.2 48.6 0 0
11:35 1021 30.15 850 25.1 18.2 64.7 53 8.4 47.2 0 0
11:40 1021 30.15 850 25.1 18.2 64.8 51 8 46.3 0 0
11:45 1021 30.15 850 25.1 18.2 64.7 54 8.9 48.1 0 0
11:50 1021 30.15 850 25.1 18.5 65.3 52 8.6 47.4 0 0
11:55 1021 30.15 850 25.1 18.7 65.6 51 8.6 47.4 0 0
12:00 1021 30.15 850 25.1 18.7 65.7 53 9 48.2 0 0
12:05 1021 30.15 850 25.1 19 66.2 53 9.4 48.9 0 0
12:10 1021 30.15 850 25.1 19.1 66.3 51 8.8 47.8 0 0
12:15 1021 30.15 850 25.1 19.3 66.7 56 10.4 50.8 0 0
12:20 1021 30.15 850 25.1 19.4 66.9 54 9.9 49.8 0 0
12:25 1021 30.15 850 25.1 19.5 67.1 52 9.5 49.1 0 0
12:30 1021 30.15 850 25.1 19.6 67.2 52 9.5 49 0 0
12:35 1021 30.15 850 25.1 19.7 67.5 54 10.3 50.6 0 0
12:40 1021 30.15 850 25.1 19.7 67.5 52 9.7 49.4 0 0
12:45 1021 30.15 850 25.1 19.8 67.6 50 9.3 48.8 0 0
12:50 1021 30.15 850 25.1 19.8 67.6 51 9.6 49.3 0 0
12:55 1021 30.15 850 25.1 20 68.1 47 8.6 47.4 0 0
13:00 1020 30.12 850 25.1 20.2 68.3 50 9.5 49 0 0
13:05 1020 30.12 850 25.1 20.4 68.8 50 9.9 49.8 0 0
13:10 1020 30.12 850 25.1 20.6 69 48 9.2 48.5 0 0
13:15 1020 30.12 850 25.1 20.6 69.1 49 9.6 49.2 0 0
13:20 1020 30.12 850 25.1 20.8 69.5 47 9.2 48.6 0 0
13:25 1020 30.12 849 25.07 21 69.7 49 10.1 50.2 0 0
13:30 1020 30.12 849 25.07 20.9 69.6 54 11.2 52.2 0 0
13:35 1020 30.12 849 25.07 21.2 70.1 46 9.1 48.4 0 0
13:40 1020 30.12 849 25.07 21.5 70.7 46 9.6 49.3 0 0
13:45 1020 30.12 849 25.07 21.5 70.7 43 8.7 47.7 0 0
13:50 1020 30.12 849 25.07 21.4 70.5 51 11 51.8 0 0
13:55 1020 30.12 849 25.07 21.9 71.3 47 10.2 50.3 0 0
14:00 1020 30.12 849 25.07 21.9 71.4 45 9.6 49.2 0 0
14:05 1020 30.12 849 25.07 22.2 71.9 44 9.7 49.4 0 0
14:10 1020 30.12 849 25.07 22 71.6 45 9.8 49.6 0 0
14:15 1020 30.12 849 25.07 22.3 72.2 38 7.6 45.7 0 0
14:20 1020 30.12 849 25.07 22.6 72.6 42 9.3 48.7 0 0
14:25 1020 30.12 849 25.07 22.7 72.8 41 8.8 47.8 0 0
14:30 1020 30.12 849 25.07 22.8 73 41 9 48.1 0 0
14:35 1020 30.12 849 25.07 23 73.3 40 8.9 48.1 0 0
14:40 1020 30.12 849 25.07 23.3 73.9 39 8.7 47.7 0 0
14:45 1019 30.09 849 25.07 23.5 74.2 40 9.4 48.9 0 0
14:50 1019 30.09 849 25.07 23.4 74.1 39 8.9 48 0 0
14:55 1019 30.09 849 25.07 23.5 74.2 36 7.7 45.8 0 0
15:00 1019 30.09 849 25.07 23.6 74.5 34 7.2 44.9 0 0
15:05 1019 30.09 848 25.04 23.6 74.4 34 7 44.6 0 0
15:10 1019 30.09 848 25.04 23.8 74.9 37 8.4 47.1 0 0
15:15 1019 30.09 848 25.04 24.1 75.4 36 8.2 46.7 0 0
15:20 1019 30.09 848 25.04 24.5 76 33 7.2 45 0 0
15:25 1019 30.09 848 25.04 24.4 75.9 32 6.9 44.4 0 0
15:30 1019 30.09 848 25.04 24.4 75.9 31 6.2 43.1 0 0
15:35 1019 30.09 848 25.04 24.4 76 30 5.9 42.6 0 0
15:40 1019 30.09 848 25.04 24.6 76.4 32 7.2 45 0 0
15:45 1019 30.09 848 25.04 24.8 76.7 30 6.1 43 0 0
15:50 1019 30.09 848 25.04 24.9 76.9 30 6.5 43.7 0 0
15:55 1019 30.09 848 25.04 25.3 77.6 25 4 39.2 0 0
16:00 1019 30.09 848 25.04 25.4 77.7 27 5.1 41.2 0 0
16:05 1019 30.09 848 25.04 25.6 78.1 27 5.4 41.8 0 0
16:10 1019 30.09 848 25.04 25.9 78.5 25 4.8 40.6 0 0
16:15 1019 30.09 848 25.04 25.5 77.9 28 5.7 42.2 0 0
16:20 1019 30.09 848 25.04 25.5 77.9 26 4.7 40.5 0 0
16:25 1019 30.09 848 25.04 25.5 78 24 3.8 38.9 0 0
16:30 1019 30.09 848 25.04 25.6 78 22 2.7 36.8 0 0
16:35 1019 30.09 848 25.04 25.6 78.1 31 7.4 45.4 0 0
16:40 1019 30.09 848 25.04 25.2 77.4 33 8 46.3 0 0
16:45 1019 30.09 848 25.04 24.1 75.4 36 8.3 46.9 0 0
16:50 1019 30.09 848 25.04 23.2 73.8 38 8.5 47.2 0 0
16:55 1019 30.09 848 25.04 23.3 74 36 7.6 45.8 0 0
17:00 1019 30.09 848 25.04 23.6 74.5 34 7.2 45 0 0
17:05 1019 30.09 848 25.04 23.7 74.6 38 8.8 47.8 0 0
17:10 1019 30.09 848 25.04 23.3 73.9 41 9.3 48.7 0 0
17:15 1019 30.09 848 25.04 23.2 73.8 39 8.8 47.8 0 0
17:20 1019 30.09 848 25.04 23.1 73.6 37 7.7 45.9 0 0
17:25 1019 30.09 848 25.04 23 73.4 39 8.6 47.4 0 0
17:30 1019 30.09 848 25.04 22.8 73 39 8.3 47 0 0
17:35 1019 30.09 848 25.04 22.9 73.2 41 9 48.2 0 0
17:40 1019 30.09 848 25.04 22.7 72.9 40 8.7 47.7 0 0
17:45 1019 30.09 848 25.04 22.1 71.7 42 8.6 47.5 0 0
17:50 1019 30.09 848 25.04 22.2 71.9 40 8.2 46.7 0 0
17:55 1019 30.09 848 25.04 22.7 72.8 40 8.5 47.3 0 0
18:00 1019 30.09 848 25.04 22.8 73.1 39 8.4 47.1 0 0
18:05 1019 30.09 848 25.04 22.7 72.8 41 8.9 48 0 0
18:10 1019 30.09 848 25.04 22.6 72.8 39 8.1 46.7 0 0
18:15 1019 30.09 848 25.04 22.4 72.3 40 8.2 46.7 0 0
18:20 1019 30.09 848 25.04 22.3 72.2 40 8.1 46.6 0 0
18:25 1019 30.09 848 25.04 22.3 72.1 40 8.2 46.8 0 0
18:30 1019 30.09 848 25.04 22.2 72 41 8.3 47 0 0
18:35 1019 30.09 848 25.04 22.1 71.8 41 8.3 46.9 0 0
18:40 1019 30.09 848 25.04 21.9 71.5 41 8.2 46.8 0 0
18:45 1019 30.09 848 25.04 21.9 71.5 40 7.8 46.1 0 0
18:50 1019 30.09 848 25.04 21.8 71.3 42 8.4 47 0 0
18:55 1019 30.09 848 25.04 21.8 71.3 42 8.4 47.2 0 0
19:00 1019 30.09 848 25.04 21.7 71.1 42 8.4 47.1 0 0
19:05 1019 30.09 848 25.04 21.6 71 41 7.9 46.2 0 0
19:10 1019 30.09 848 25.04 21.6 70.9 42 8.2 46.8 0 0
19:15 1019 30.09 848 25.04 21.4 70.4 43 8.3 47 0 0
19:20 1019 30.09 848 25.04 21.1 69.9 45 8.8 47.8 0 0
19:25 1019 30.09 848 25.04 20.9 69.6 44 8.2 46.7 0 0
19:30 1019 30.09 848 25.04 20.9 69.5 44 8.3 46.9 0 0
19:35 1019 30.09 848 25.04 20.7 69.3 45 8.5 47.3 0 0
19:40 1019 30.09 848 25.04 20.6 69.1 44 8 46.5 0 0
19:45 1019 30.09 848 25.04 20.4 68.7 44 7.8 46.1 0 0
19:50 1019 30.09 848 25.04 20.4 68.7 44 8 46.4 0 0
19:55 1019 30.09 848 25.04 20.3 68.5 44 7.7 45.9 0 0
20:00 1019 30.09 848 25.04 20.2 68.3 45 8 46.5 0 0
20:05 1019 30.09 848 25.04 19.9 67.9 46 8.2 46.7 0 0
20:10 1019 30.09 848 25.04 19.8 67.7 47 8.2 46.8 0 0
20:15 1019 30.09 848 25.04 19.7 67.4 47 8.1 46.6 0 0
20:20 1019 30.09 848 25.04 19.6 67.3 47 8.2 46.8 0 0
20:25 1019 30.09 848 25.04 19.5 67.1 48 8.2 46.7 0 0
20:30 1019 30.09 848 25.04 19.4 66.9 48 8.3 46.9 0 0
20:35 1019 30.09 848 25.04 19.3 66.7 49 8.4 47.1 0 0
20:40 1019 30.09 848 25.04 19.2 66.5 50 8.6 47.6 0 0
20:45 1019 30.09 848 25.04 19 66.2 51 8.7 47.6 0 0
20:50 1019 30.09 848 25.04 18.9 66 51 8.7 47.7 0 0
20:55 1019 30.09 848 25.04 18.7 65.7 51 8.4 47.2 0 0
21:00 1019 30.09 849 25.07 18.7 65.6 50 8.3 46.9 0 0
21:05 1019 30.09 849 25.07 18.7 65.6 50 8.1 46.7 0 0
21:10 1019 30.09 849 25.07 18.5 65.4 51 8.2 46.8 0 0
21:15 1020 30.12 849 25.07 18.5 65.3 51 8.4 47.2 0 0
21:20 1020 30.12 849 25.07 18.4 65.2 52 8.6 47.4 0 0
21:25 1020 30.12 849 25.07 18.4 65 53 8.8 47.8 0 0
21:30 1020 30.12 849 25.07 18.3 65 53 8.7 47.7 0 0
21:35 1020 30.12 849 25.07 18.4 65 53 8.8 47.8 0 0
21:40 1020 30.12 849 25.07 18.4 65 53 8.8 47.8 0 0
21:45 1020 30.12 849 25.07 18.4 65.2 53 8.8 47.8 0 0
21:50 1020 30.12 849 25.07 18.5 65.2 53 8.9 48 0 0
21:55 1020 30.12 849 25.07 18.4 65.2 54 9.1 48.4 0 0
22:00 1020 30.12 849 25.07 18.4 65 54 9 48.2 0 0
22:05 1020 30.12 850 25.1 18.3 65 54 8.9 48.1 0 0
22:10 1020 30.12 850 25.1 18.3 64.9 54 9 48.2 0 0
22:15 1021 30.15 850 25.1 18.3 65 54 9 48.1 0 0
22:20 1021 30.15 850 25.1 18.2 64.8 55 9 48.3 0 0
22:25 1021 30.15 850 25.1 18.1 64.6 55 8.9 48.1 0 0
22:30 1021 30.15 850 25.1 18.2 64.7 55 9.1 48.4 0 0
22:35 1021 30.15 850 25.1 18.1 64.5 56 9.2 48.5 0 0
22:40 1020 30.12 850 25.1 18 64.4 57 9.3 48.8 0 0
22:45 1021 30.15 850 25.1 17.8 64.1 57 9.2 48.5 0 0
22:50 1021 30.15 850 25.1 17.9 64.2 57 9.2 48.6 0 0
22:55 1021 30.15 850 25.1 17.9 64.1 57 9.3 48.7 0 0
23:00 1021 30.15 850 25.1 17.8 64.1 57 9.3 48.7 0 0
23:05 1021 30.15 850 25.1 17.6 63.7 58 9.5 49 0 0
23:10 1021 30.15 850 25.1 17.6 63.7 58 9.3 48.8 0 0
23:15 1021 30.15 850 25.1 17.5 63.6 58 9.3 48.7 0 0
23:20 1021 30.15 850 25.1 17.6 63.6 58 9.3 48.8 0 0
23:25 1021 30.15 850 25.1 17.4 63.3 59 9.5 49 0 0
23:30 1021 30.15 850 25.1 17.2 63 60 9.5 49 0 0
23:35 1021 30.15 850 25.1 17.1 62.8 60 9.5 49 0 0
23:40 1021 30.15 850 25.1 17 62.6 61 9.5 49.1 0 0
23:45 1021 30.15 850 25.1 16.9 62.5 62 9.6 49.2 0 0
23:50 1021 30.15 850 25.1 16.8 62.3 62 9.6 49.2 0 0
23:55 1021 30.15 850 25.1 16.7 62.1 62 9.5 49.1 0 0
24:00 1021 30.15 850 25.1 16.7 62.1 62 9.5 49.1 0 0